Nunoa, Chile
Current Conditions -  °F | °C
As of 5:00 PM on Friday 28 Nov 2014 (Local Time) from SCTB Reporting Station
Overcast Overcast  
Wind Chill: 72°   Ceiling: 10000
Heat Index: 72°   Visibility: 5mi
Dew Point: 54°   Wind: 5mph
Humidity: 53%   Direction: 250°WSW
Pressure: 29.88"   Gusts: NA
Location:  33.47°S, 70.6°W
Report Text: SCTB 282100Z 25004KT 8000 OVC100 22/12 Q1012
Loading
Personal Weather Stations






























Interactive Weather Map New forecast layout! Learn more

10-Day Weather Forecast

Advertisements
Track Severe Weather on mobile